Archiv-/Tagesdaten

--Timestamp---	Temp	Chill	HIndex	Humid	Dewpt	 Wind 	HiWind	WindDir	Rain 	Barom	Solar	 ET  	 UV 
--------------	----	-----	------	-----	-----	------	------	-------	-----	-----	-----	-----	----
20100328 00:00	5.9	3.2	5.9	85	3.6	13	21	270	0.0	1011.0	0	0.025	0.0
20100328 00:05	5.9	3.2	5.9	85	3.6	13	24	248	0.0	1010.8	0	0.000	0.0
20100328 00:10	5.9	3.2	5.9	85	3.6	13	23	248	0.0	1010.8	0	0.000	0.0
20100328 00:15	5.9	2.8	5.9	85	3.6	16	24	248	0.0	1010.8	0	0.000	0.0
20100328 00:20	5.9	3.6	5.9	85	3.6	11	21	248	0.0	1010.9	0	0.000	0.0
20100328 00:25	6.0	3.6	6.0	85	3.7	11	23	248	0.0	1010.9	0	0.000	0.0
20100328 00:30	6.0	3.1	6.0	84	3.5	14	26	248	0.0	1010.9	0	0.000	0.0
20100328 00:35	6.1	3.4	6.1	84	3.6	13	21	248	0.0	1010.9	0	0.000	0.0
20100328 00:40	6.1	2.9	6.1	83	3.4	16	29	248	0.0	1010.9	0	0.000	0.0
20100328 00:45	6.2	3.3	6.2	83	3.5	14	31	248	0.0	1010.9	0	0.000	0.0
20100328 00:50	6.2	3.6	6.2	83	3.6	13	29	248	0.0	1010.9	0	0.000	0.0
20100328 00:55	6.3	3.2	6.3	82	3.4	16	26	248	0.0	1010.9	0	0.000	0.0
20100328 01:00	6.3	3.2	6.3	82	3.4	16	29	248	0.0	1010.8	0	0.025	0.0
20100328 01:05	6.3	3.2	6.3	82	3.4	16	31	248	0.0	1010.8	0	0.000	0.0
20100328 01:10	6.3	3.0	6.3	81	3.3	18	34	248	0.0	1010.8	0	0.000	0.0
20100328 01:15	6.3	3.5	6.3	81	3.3	14	26	248	0.0	1010.9	0	0.000	0.0
20100328 01:20	6.3	2.8	6.3	81	3.3	19	35	248	0.0	1011.0	0	0.000	0.0
20100328 01:25	6.4	3.1	6.4	81	3.4	18	29	248	0.0	1010.9	0	0.000	0.0
20100328 01:30	6.4	3.3	6.4	81	3.4	16	27	248	0.0	1010.9	0	0.000	0.0
20100328 01:35	6.4	3.3	6.4	81	3.4	16	29	270	0.0	1011.0	0	0.000	0.0
20100328 01:40	6.4	3.0	6.4	81	3.4	19	31	270	0.0	1011.1	0	0.000	0.0
20100328 01:45	6.5	3.2	6.5	81	3.5	18	32	248	0.0	1011.1	0	0.000	0.0
20100328 01:50	6.5	3.5	6.5	81	3.5	16	27	270	0.0	1011.1	0	0.000	0.0
20100328 01:55	6.5	3.5	6.5	81	3.5	16	26	270	0.0	1011.2	0	0.000	0.0
20100328 03:00	6.6	3.1	6.6	81	3.5	19	35	270	0.0	1011.2	0	0.025	0.0
20100328 03:05	6.6	2.6	6.6	80	3.4	24	42	270	0.0	1011.3	0	0.000	0.0
20100328 03:10	6.4	1.9	6.4	79	3.1	31	50	270	0.0	1011.5	0	0.000	0.0
20100328 03:15	6.1	1.5	6.1	82	3.2	29	48	270	0.2	1011.5	0	0.000	0.0
20100328 03:20	5.7	1.9	5.7	84	3.2	21	32	248	0.0	1011.2	0	0.000	0.0
20100328 03:25	5.6	2.1	5.6	85	3.3	18	29	248	0.0	1011.2	0	0.000	0.0
20100328 03:30	5.6	2.5	5.6	85	3.2	14	21	248	0.0	1011.2	0	0.000	0.0
20100328 03:35	5.5	2.7	5.5	85	3.2	13	24	248	0.0	1011.3	0	0.000	0.0
20100328 03:40	5.4	2.9	5.4	85	3.1	11	19	248	0.0	1011.3	0	0.000	0.0
20100328 03:45	5.4	3.3	5.4	85	3.1	10	19	248	0.0	1011.3	0	0.000	0.0
20100328 03:50	5.4	2.9	5.4	85	3.1	11	18	248	0.0	1011.4	0	0.000	0.0
20100328 03:55	5.4	2.9	5.4	85	3.1	11	21	248	0.0	1011.4	0	0.000	0.0
20100328 04:00	5.6	3.1	5.6	85	3.2	11	18	248	0.0	1011.4	0	0.025	0.0
20100328 04:05	5.6	3.1	5.6	85	3.3	11	19	248	0.0	1011.4	0	0.000	0.0
20100328 04:10	5.7	3.2	5.7	85	3.3	11	19	248	0.0	1011.5	0	0.000	0.0
20100328 04:15	5.7	3.0	5.7	85	3.4	13	24	248	0.0	1011.6	0	0.000	0.0
20100328 04:20	5.8	2.8	5.8	85	3.5	14	26	248	0.0	1011.6	0	0.000	0.0
20100328 04:25	5.8	3.1	5.8	85	3.5	13	23	248	0.0	1011.6	0	0.000	0.0
20100328 04:30	5.8	3.1	5.8	85	3.5	13	21	270	0.0	1011.6	0	0.000	0.0
20100328 04:35	5.9	2.9	5.9	85	3.6	14	26	248	0.0	1011.6	0	0.000	0.0
20100328 04:40	5.9	3.3	5.9	85	3.6	13	24	248	0.0	1011.6	0	0.000	0.0
20100328 04:45	5.9	3.2	5.9	85	3.6	13	23	248	0.0	1011.6	0	0.000	0.0
20100328 04:50	5.9	3.5	5.9	85	3.6	11	23	270	0.0	1011.6	0	0.000	0.0
20100328 04:55	5.9	3.2	5.9	85	3.6	13	24	248	0.0	1011.7	0	0.000	0.0
20100328 05:00	5.9	3.2	5.9	86	3.7	13	19	248	0.0	1011.7	0	0.025	0.0
20100328 05:05	5.9	3.3	5.9	86	3.8	13	21	248	0.0	1011.9	0	0.000	0.0
20100328 05:10	5.9	3.3	5.9	86	3.8	13	23	248	0.0	1011.9	0	0.000	0.0
20100328 05:15	5.9	3.3	5.9	85	3.6	13	23	248	0.0	1012.0	0	0.000	0.0
20100328 05:20	5.9	3.3	5.9	85	3.6	13	24	248	0.0	1012.0	0	0.000	0.0
20100328 05:25	6.0	3.1	6.0	85	3.7	14	26	248	0.0	1012.1	0	0.000	0.0
20100328 05:30	6.0	2.8	6.0	84	3.5	16	27	248	0.0	1012.1	0	0.000	0.0
20100328 05:35	6.0	2.8	6.0	84	3.5	16	31	270	0.0	1012.1	0	0.000	0.0
20100328 05:40	6.1	2.9	6.1	83	3.4	16	29	248	0.0	1012.2	0	0.000	0.0
20100328 05:45	6.1	2.7	6.1	82	3.2	18	31	270	0.0	1012.3	0	0.000	0.0
20100328 05:50	6.1	2.9	6.1	82	3.2	16	29	270	0.0	1012.3	0	0.000	0.0
20100328 05:55	6.1	2.3	6.1	81	3.0	21	34	270	0.0	1012.4	0	0.000	0.0
20100328 06:00	6.1	2.4	6.1	81	3.1	21	34	270	0.0	1012.5	0	0.025	0.0
20100328 06:05	6.1	2.9	6.1	81	3.0	16	27	270	0.0	1012.7	0	0.000	0.0
20100328 06:10	6.1	2.7	6.1	81	3.0	18	27	270	0.0	1012.7	0	0.000	0.0
20100328 06:15	6.1	2.9	6.1	82	3.2	16	29	270	0.0	1012.7	0	0.000	0.0
20100328 06:20	6.1	3.1	6.1	82	3.2	14	27	270	0.0	1012.9	0	0.000	0.0
20100328 06:25	6.0	3.1	6.0	82	3.2	14	31	270	0.0	1012.9	0	0.000	0.0
20100328 06:30	6.0	3.1	6.0	82	3.2	14	31	270	0.0	1012.9	0	0.000	0.0
20100328 06:35	6.0	3.6	6.0	82	3.2	11	21	270	0.0	1012.9	0	0.000	0.0
20100328 06:40	6.0	2.8	6.0	82	3.2	16	26	270	0.0	1013.0	0	0.000	0.0
20100328 06:45	6.0	3.1	6.0	82	3.2	14	24	270	0.0	1013.1	0	0.000	0.0
20100328 06:50	6.0	2.8	6.0	82	3.2	16	27	270	0.0	1013.1	0	0.000	0.0
20100328 06:55	6.0	2.8	6.0	82	3.2	16	27	270	0.0	1013.1	0	0.000	0.0
20100328 07:00	6.0	3.3	6.0	82	3.2	13	24	270	0.0	1013.1	0	0.025	0.0
20100328 07:05	6.0	3.1	6.0	82	3.2	14	21	270	0.0	1013.4	0	0.000	0.0
20100328 07:10	5.9	3.3	5.9	82	3.1	13	26	270	0.0	1013.4	3	0.000	0.0
20100328 07:15	5.8	3.4	5.8	82	3.0	11	19	270	0.0	1013.4	9	0.000	0.0
20100328 07:20	5.8	3.1	5.8	83	3.1	13	24	248	0.0	1013.4	11	0.000	0.0
20100328 07:25	5.8	3.1	5.8	83	3.1	13	21	270	0.0	1013.4	13	0.000	0.0
20100328 07:30	5.8	3.4	5.8	83	3.1	11	19	270	0.0	1013.5	19	0.000	0.0
20100328 07:35	5.8	3.1	5.8	83	3.1	13	23	270	0.0	1013.7	22	0.000	0.0
20100328 07:40	5.8	3.1	5.8	83	3.2	13	21	270	0.0	1013.7	26	0.000	0.0
20100328 07:45	5.9	3.5	5.9	83	3.2	11	19	248	0.0	1013.8	34	0.000	0.0
20100328 07:50	5.9	3.3	5.9	82	3.1	13	21	270	0.0	1013.9	45	0.000	0.0
20100328 07:55	5.9	3.6	5.9	83	3.3	11	21	248	0.0	1013.9	53	0.000	0.0
20100328 08:00	6.0	3.6	6.0	83	3.3	11	21	248	0.0	1013.9	62	0.025	0.0
20100328 08:05	6.0	3.6	6.0	83	3.3	11	21	248	0.0	1014.1	64	0.000	0.0
20100328 08:10	6.1	3.7	6.1	82	3.2	11	21	248	0.0	1014.2	54	0.000	0.0
20100328 08:15	6.1	3.8	6.1	83	3.4	11	23	248	0.0	1014.1	60	0.000	0.0
20100328 08:20	6.2	4.5	6.2	83	3.5	8	16	248	0.0	1014.2	67	0.000	0.0
20100328 08:25	6.2	4.1	6.2	83	3.5	10	16	248	0.0	1014.2	73	0.000	0.0
20100328 08:30	6.2	4.1	6.2	82	3.3	10	19	248	0.0	1014.1	84	0.000	0.0
20100328 08:35	6.2	3.9	6.2	82	3.4	11	18	248	0.0	1014.2	96	0.000	0.0
20100328 08:40	6.3	4.3	6.3	83	3.6	10	16	248	0.0	1014.2	110	0.000	0.0
20100328 08:45	6.3	3.7	6.3	82	3.5	13	24	248	0.0	1014.2	98	0.000	0.0
20100328 08:50	6.4	3.8	6.4	82	3.5	13	21	270	0.0	1014.3	120	0.000	0.0
20100328 08:55	6.5	4.2	6.5	82	3.7	11	19	270	0.0	1014.4	121	0.000	0.0
20100328 09:00	6.7	4.7	6.7	81	3.6	10	19	270	0.0	1014.4	150	0.051	0.4
20100328 09:05	6.8	4.3	6.8	81	3.7	13	23	248	0.0	1014.4	151	0.000	0.2
20100328 09:10	6.8	4.3	6.8	80	3.6	13	23	248	0.0	1014.5	134	0.000	0.0
20100328 09:15	6.9	4.4	6.9	80	3.7	13	26	248	0.0	1014.6	115	0.000	0.0
20100328 09:20	6.9	4.7	6.9	80	3.7	11	19	248	0.0	1014.5	105	0.000	0.0
20100328 09:25	6.9	4.8	6.9	79	3.6	11	19	248	0.0	1014.5	104	0.000	0.0
20100328 09:30	7.0	4.5	7.0	79	3.6	13	23	270	0.0	1014.7	104	0.000	0.0
20100328 09:35	7.1	4.9	7.1	79	3.7	11	21	248	0.0	1014.7	127	0.000	0.5
20100328 09:40	7.2	4.5	7.2	78	3.6	14	24	270	0.0	1014.7	124	0.000	0.5
20100328 09:45	7.2	4.6	7.2	77	3.5	14	24	270	0.0	1014.8	108	0.000	0.0
20100328 09:50	7.2	5.4	7.2	77	3.5	10	23	270	0.0	1014.8	81	0.000	0.0
20100328 09:55	7.2	4.6	7.2	77	3.5	14	23	270	0.0	1014.9	93	0.000	0.3
20100328 10:00	7.2	4.6	7.2	77	3.5	14	29	270	0.0	1014.9	83	0.076	0.0
20100328 10:05	7.1	3.8	7.1	77	3.4	19	34	270	0.0	1015.1	76	0.000	0.0
20100328 10:10	7.1	4.4	7.1	78	3.5	14	24	248	0.0	1015.1	85	0.000	0.0
20100328 10:15	7.1	4.6	7.1	78	3.5	13	24	270	0.0	1015.1	132	0.000	0.6
20100328 10:20	7.1	4.1	7.1	77	3.3	16	24	270	0.0	1015.1	140	0.000	0.7
20100328 10:25	7.1	4.4	7.1	77	3.4	14	26	270	0.0	1015.2	158	0.000	0.8
20100328 10:30	7.2	4.2	7.2	77	3.5	18	37	270	0.0	1015.3	177	0.000	0.9
20100328 10:35	7.2	4.4	7.2	76	3.3	16	26	270	0.0	1015.1	158	0.000	0.8
20100328 10:40	7.3	4.2	7.3	76	3.3	18	31	270	0.0	1015.1	172	0.000	0.9
20100328 10:45	7.3	4.2	7.3	76	3.3	18	34	270	0.0	1015.1	142	0.000	0.8
20100328 10:50	7.2	4.0	7.2	77	3.5	19	34	270	0.0	1015.2	121	0.000	0.7
20100328 10:55	7.2	4.1	7.2	78	3.6	18	27	270	0.0	1015.3	122	0.000	0.7
20100328 11:00	7.1	4.2	7.1	78	3.5	16	27	248	0.0	1015.2	129	0.102	0.8
20100328 11:05	7.1	4.2	7.1	79	3.7	16	29	248	0.0	1015.3	249	0.000	1.4
20100328 11:10	7.3	4.3	7.3	79	3.9	18	31	270	0.0	1015.3	332	0.000	1.8
20100328 11:15	7.6	4.6	7.6	77	3.8	18	27	270	0.0	1015.2	348	0.000	1.9
20100328 11:20	7.9	4.8	7.9	75	3.7	19	31	270	0.0	1015.2	352	0.000	1.9
20100328 11:25	8.1	5.5	8.1	75	3.9	16	27	248	0.0	1015.2	202	0.000	1.0
20100328 11:30	8.2	5.5	8.2	74	3.8	16	26	270	0.0	1015.2	174	0.000	1.2
20100328 11:35	8.2	5.8	8.2	74	3.9	14	24	270	0.0	1015.2	217	0.000	1.3
20100328 11:40	8.4	5.8	8.4	75	4.2	16	26	270	0.0	1015.1	281	0.000	1.6
20100328 11:45	8.6	5.9	8.6	73	4.0	18	37	270	0.0	1015.0	173	0.000	1.2
20100328 11:50	8.6	5.9	8.6	72	3.8	18	34	270	0.0	1014.8	167	0.000	1.2
20100328 11:55	8.9	5.9	8.9	71	3.9	21	31	270	0.0	1014.7	686	0.000	3.2
20100328 12:00	9.4	6.5	9.4	70	4.2	23	35	270	0.0	1014.7	750	0.178	3.0
20100328 12:05	9.6	7.0	9.6	68	4.0	19	34	270	0.0	1014.5	281	0.000	2.8
20100328 12:10	9.7	6.8	9.7	68	4.1	23	35	270	0.0	1014.6	810	0.000	3.1
20100328 12:15	9.9	7.4	9.9	68	4.3	19	39	270	0.0	1014.5	618	0.000	3.1
20100328 12:20	9.9	7.0	9.9	67	4.0	23	42	270	0.0	1014.5	333	0.000	2.6
20100328 12:25	9.7	6.8	9.7	68	4.1	23	35	270	0.0	1014.4	533	0.000	3.1
20100328 12:30	10.0	10.0	10.0	68	4.4	23	35	270	0.0	1014.3	762	0.000	3.2
20100328 12:35	10.1	10.1	10.1	67	4.3	18	31	248	0.0	1014.3	664	0.000	2.7
20100328 12:40	10.0	10.0	10.0	67	4.2	19	35	270	0.0	1014.3	280	0.000	2.2
20100328 12:45	9.7	6.7	9.7	67	3.8	23	34	270	0.0	1014.3	383	0.000	2.5
20100328 12:50	9.5	6.8	9.5	68	3.9	19	35	248	0.0	1014.4	377	0.000	2.3
20100328 12:55	9.6	7.1	9.6	71	4.6	18	34	270	0.0	1014.3	292	0.000	2.5
20100328 13:00	9.4	6.7	9.4	68	3.8	19	32	248	0.0	1014.3	324	0.279	2.3
20100328 13:05	9.2	6.8	9.2	71	4.2	16	26	270	0.0	1014.2	457	0.000	2.7
20100328 13:10	9.5	7.6	9.5	70	4.3	13	24	270	0.0	1014.1	651	0.000	3.3
20100328 13:15	9.9	7.6	9.9	67	4.1	18	23	270	0.0	1014.0	783	0.000	3.1
20100328 13:20	10.1	10.1	10.1	66	4.0	19	32	270	0.0	1014.0	288	0.000	2.6
20100328 13:25	10.4	10.4	10.4	64	3.9	19	34	270	0.0	1013.7	766	0.000	3.5
20100328 13:30	10.7	10.7	10.7	63	4.0	18	29	270	0.0	1013.7	366	0.000	2.7
20100328 13:35	10.6	10.6	10.6	60	3.2	24	34	292	0.0	1013.7	374	0.000	2.5
20100328 13:40	10.6	10.6	10.6	63	3.8	19	29	270	0.0	1013.7	340	0.000	2.1
20100328 13:45	10.7	10.7	10.7	61	3.5	19	35	270	0.0	1013.6	333	0.000	2.3
20100328 13:50	10.7	10.7	10.7	61	3.5	18	31	270	0.0	1013.5	355	0.000	2.2
20100328 13:55	10.8	10.8	10.8	60	3.4	19	29	270	0.0	1013.5	368	0.000	2.7
20100328 14:00	11.1	11.1	11.1	61	3.8	16	26	270	0.0	1013.4	681	0.305	3.5
20100328 14:05	11.3	11.3	11.3	58	3.3	18	29	270	0.0	1013.2	742	0.000	3.0
20100328 14:10	11.5	11.5	11.5	58	3.5	18	27	270	0.0	1013.2	737	0.000	3.6
20100328 14:15	11.8	11.8	11.8	57	3.6	18	31	248	0.0	1013.1	604	0.000	3.1
20100328 14:20	11.6	11.6	11.6	59	3.9	16	29	248	0.0	1013.1	346	0.000	2.1
20100328 14:25	11.3	11.3	11.3	58	3.4	19	29	270	0.0	1012.9	335	0.000	2.0
20100328 14:30	11.4	11.4	11.4	59	3.7	16	29	248	0.0	1012.7	431	0.000	2.6
20100328 14:35	11.6	11.6	11.6	56	3.1	21	35	248	0.0	1012.8	728	0.000	3.1
20100328 14:40	11.7	11.7	11.7	56	3.2	19	34	248	0.0	1012.7	627	0.000	2.9
20100328 14:45	11.6	11.6	11.6	54	2.6	19	35	248	0.0	1012.8	369	0.000	2.3
20100328 14:50	11.6	11.6	11.6	56	3.1	19	34	270	0.0	1012.8	403	0.000	2.7
20100328 14:55	11.6	11.6	11.6	55	2.8	21	34	248	0.0	1012.7	578	0.000	2.6
20100328 15:00	11.3	11.3	11.3	56	2.8	23	35	248	0.0	1012.6	299	0.330	2.0
20100328 15:05	11.1	11.1	11.1	57	2.9	23	37	248	0.0	1012.8	380	0.000	2.2
20100328 15:10	11.2	11.2	11.2	57	3.0	23	37	248	0.0	1012.8	396	0.000	2.2
20100328 15:15	11.2	11.2	11.2	57	3.0	24	42	248	0.0	1012.7	472	0.000	2.2
20100328 15:20	11.3	11.3	11.3	57	3.1	19	34	270	0.0	1012.7	299	0.000	1.7
20100328 15:25	11.2	11.2	11.2	56	2.8	19	32	270	0.0	1012.6	310	0.000	1.8
20100328 15:30	11.2	11.2	11.2	56	2.8	21	32	270	0.0	1012.6	313	0.000	1.7
20100328 15:35	11.1	11.1	11.1	56	2.6	23	32	270	0.0	1012.6	250	0.000	1.4
20100328 15:40	10.8	10.8	10.8	58	2.9	23	35	270	0.0	1012.6	210	0.000	1.2
20100328 15:45	10.7	10.7	10.7	59	3.0	19	29	270	0.0	1012.7	183	0.000	1.0
20100328 15:50	10.6	10.6	10.6	59	2.9	21	40	270	0.0	1012.7	204	0.000	1.1
20100328 15:55	10.6	10.6	10.6	60	3.2	21	35	248	0.0	1012.8	203	0.000	1.1
20100328 16:00	10.5	10.5	10.5	59	2.8	23	39	248	0.0	1012.8	162	0.229	0.9
20100328 16:05	10.4	10.4	10.4	60	3.0	19	35	270	0.0	1012.6	139	0.000	0.8
20100328 16:10	10.3	10.3	10.3	61	3.1	16	29	270	0.0	1012.7	147	0.000	0.8
20100328 16:15	10.4	10.4	10.4	61	3.2	16	29	270	0.0	1012.7	178	0.000	0.9
20100328 16:20	10.4	10.4	10.4	61	3.2	14	24	270	0.0	1012.7	187	0.000	0.9
20100328 16:25	10.5	10.5	10.5	61	3.3	16	35	270	0.0	1012.7	166	0.000	0.9
20100328 16:30	10.5	10.5	10.5	61	3.3	21	34	270	0.0	1012.7	184	0.000	0.9
20100328 16:35	10.6	10.6	10.6	61	3.3	19	32	270	0.0	1012.7	188	0.000	0.9
20100328 16:40	10.5	10.5	10.5	60	3.1	23	32	270	0.0	1012.7	187	0.000	0.9
20100328 16:45	10.6	10.6	10.6	61	3.3	18	29	270	0.0	1012.7	170	0.000	0.8
20100328 16:50	10.6	10.6	10.6	60	3.1	24	45	248	0.0	1012.6	128	0.000	0.6
20100328 16:55	10.4	10.4	10.4	60	3.0	23	34	248	0.0	1012.6	92	0.000	0.3
20100328 17:00	10.3	10.3	10.3	60	2.9	19	37	248	0.0	1012.6	126	0.152	0.5
20100328 17:05	10.3	10.3	10.3	61	3.1	19	29	270	0.0	1012.6	130	0.000	0.5
20100328 17:10	10.3	10.3	10.3	61	3.1	18	31	270	0.0	1012.5	86	0.000	0.0
20100328 17:15	10.2	10.2	10.2	61	3.0	18	29	248	0.0	1012.6	93	0.000	0.0
20100328 17:20	10.2	10.2	10.2	60	2.8	18	31	248	0.0	1012.5	84	0.000	0.0
20100328 17:25	10.2	10.2	10.2	61	3.0	18	29	248	0.0	1012.5	81	0.000	0.0
20100328 17:30	10.2	10.2	10.2	62	3.2	13	21	270	0.0	1012.6	93	0.000	0.0
20100328 17:35	10.2	10.2	10.2	62	3.3	16	24	270	0.0	1012.6	80	0.000	0.0
20100328 17:40	10.2	10.2	10.2	62	3.2	13	27	248	0.0	1012.6	73	0.000	0.0
20100328 17:45	10.2	10.2	10.2	61	3.0	16	27	270	0.0	1012.4	76	0.000	0.0
20100328 17:50	10.2	10.2	10.2	60	2.8	18	27	270	0.0	1012.4	82	0.000	0.0
20100328 17:55	10.2	10.2	10.2	60	2.7	16	29	270	0.0	1012.4	71	0.000	0.0
20100328 18:00	10.2	10.2	10.2	61	3.0	13	21	270	0.0	1012.4	76	0.102	0.0
20100328 18:05	10.2	10.2	10.2	61	3.0	13	23	270	0.0	1012.3	88	0.000	0.0
20100328 18:10	10.2	10.2	10.2	61	3.0	13	24	270	0.0	1012.3	76	0.000	0.0
20100328 18:15	10.3	10.3	10.3	60	2.9	13	27	270	0.0	1012.3	60	0.000	0.0
20100328 18:20	10.3	10.3	10.3	62	3.3	10	19	270	0.0	1012.2	71	0.000	0.0
20100328 18:25	10.3	10.3	10.3	62	3.3	10	19	270	0.0	1012.3	69	0.000	0.0
20100328 18:30	10.3	10.3	10.3	61	3.1	10	19	270	0.0	1012.3	52	0.000	0.0
20100328 18:35	10.2	10.2	10.2	63	3.5	8	13	270	0.0	1012.3	39	0.000	0.0
20100328 18:40	10.2	10.2	10.2	63	3.4	8	16	270	0.0	1012.3	33	0.000	0.0
20100328 18:45	10.1	10.1	10.1	64	3.6	8	14	292	0.0	1012.4	16	0.000	0.0
20100328 18:50	10.1	10.1	10.1	65	3.8	8	21	270	0.0	1012.5	10	0.000	0.0
20100328 18:55	9.9	8.9	9.9	67	4.0	8	14	292	0.0	1012.5	18	0.000	0.0
20100328 19:00	9.8	7.7	9.8	65	3.5	14	27	270	0.0	1012.5	18	0.076	0.0
20100328 19:05	9.7	7.4	9.7	65	3.4	16	26	270	0.0	1012.5	13	0.000	0.0
20100328 19:10	9.6	7.3	9.6	65	3.4	16	26	270	0.0	1012.5	9	0.000	0.0
20100328 19:15	9.5	7.4	9.5	66	3.5	14	23	292	0.0	1012.6	8	0.000	0.0
20100328 19:20	9.4	7.8	9.4	66	3.4	11	19	270	0.0	1012.5	2	0.000	0.0
20100328 19:25	9.4	8.0	9.4	66	3.4	10	23	270	0.0	1012.6	0	0.000	0.0
20100328 19:30	9.4	7.5	9.4	66	3.4	13	27	270	0.0	1012.5	0	0.000	0.0
20100328 19:35	9.4	7.3	9.4	66	3.4	14	26	270	0.0	1012.6	0	0.000	0.0
20100328 19:40	9.4	8.7	9.4	67	3.6	6	18	292	0.0	1012.6	0	0.000	0.0
20100328 19:45	9.3	7.9	9.3	68	3.7	10	18	270	0.0	1012.6	0	0.000	0.0
20100328 19:50	9.3	8.5	9.3	68	3.7	6	14	270	0.0	1012.7	0	0.000	0.0
20100328 19:55	9.2	7.4	9.2	68	3.6	11	24	270	0.0	1012.7	0	0.000	0.0
20100328 20:00	9.2	7.0	9.2	68	3.6	14	26	248	0.0	1012.6	0	0.051	0.0
20100328 20:05	9.1	7.4	9.1	68	3.5	11	21	270	0.0	1012.7	0	0.000	0.0
20100328 20:10	9.1	6.8	9.1	68	3.5	14	27	270	0.0	1012.7	0	0.000	0.0
20100328 20:15	9.1	6.6	9.1	69	3.7	16	29	270	0.0	1012.7	0	0.000	0.0
20100328 20:20	8.9	6.5	8.9	70	3.8	16	29	270	0.0	1012.7	0	0.000	0.0
20100328 20:25	8.8	6.0	8.8	71	3.9	19	34	270	0.0	1012.9	0	0.000	0.0
20100328 20:30	8.7	6.4	8.7	72	4.0	14	27	248	0.0	1012.9	0	0.000	0.0
20100328 20:35	8.6	6.3	8.6	73	4.0	14	27	270	0.0	1013.0	0	0.000	0.0
20100328 20:40	8.4	6.6	8.4	75	4.3	11	19	270	0.0	1013.0	0	0.000	0.0
20100328 20:45	8.3	6.1	8.3	76	4.3	13	26	270	0.0	1013.1	0	0.000	0.0
20100328 20:50	8.1	5.7	8.1	77	4.3	14	26	270	0.0	1013.1	0	0.000	0.0
20100328 20:55	8.0	5.8	8.0	78	4.4	13	21	270	0.2	1013.2	0	0.000	0.0
20100328 21:00	7.8	5.6	7.8	79	4.4	13	24	270	0.0	1013.2	0	0.051	0.0
20100328 21:05	7.8	6.1	7.8	79	4.4	10	18	270	0.0	1013.2	0	0.000	0.0
20100328 21:10	7.7	5.4	7.7	79	4.3	13	24	270	0.0	1013.2	0	0.000	0.0
20100328 21:15	7.7	5.9	7.7	79	4.3	10	18	248	0.0	1013.3	0	0.000	0.0
20100328 21:20	7.6	5.6	7.6	79	4.2	11	21	248	0.0	1013.2	0	0.000	0.0
20100328 21:25	7.6	5.5	7.6	79	4.1	11	23	248	0.0	1013.2	0	0.000	0.0
20100328 21:30	7.5	6.1	7.5	80	4.3	8	18	270	0.0	1013.3	0	0.000	0.0
20100328 21:35	7.5	5.4	7.5	80	4.3	11	19	248	0.0	1013.3	0	0.000	0.0
20100328 21:40	7.5	5.7	7.5	80	4.3	10	16	248	0.0	1013.3	0	0.000	0.0
20100328 21:45	7.5	6.1	7.5	80	4.3	8	14	248	0.0	1013.3	0	0.000	0.0
20100328 21:50	7.5	5.4	7.5	80	4.3	11	18	225	0.0	1013.4	0	0.000	0.0
20100328 21:55	7.5	6.5	7.5	81	4.5	6	11	225	0.0	1013.4	0	0.000	0.0
20100328 22:00	7.4	6.0	7.4	82	4.6	8	18	225	0.0	1013.3	0	0.025	0.0
20100328 22:05	7.3	5.9	7.3	83	4.6	8	16	225	0.0	1013.3	0	0.000	0.0
20100328 22:10	7.2	5.4	7.2	84	4.7	10	18	225	0.0	1013.2	0	0.000	0.0
20100328 22:15	7.2	5.3	7.2	84	4.6	10	18	225	0.0	1013.2	0	0.000	0.0
20100328 22:20	7.1	5.6	7.1	85	4.7	8	18	202	0.0	1013.2	0	0.000	0.0
20100328 22:25	7.0	4.8	7.0	85	4.7	11	23	225	0.0	1013.1	0	0.000	0.0
20100328 22:30	7.0	4.8	7.0	85	4.7	11	19	225	0.0	1013.1	0	0.000	0.0
20100328 22:35	7.0	5.1	7.0	86	4.8	10	18	225	0.0	1013.1	0	0.000	0.0
20100328 22:40	6.9	5.1	6.9	86	4.8	10	16	225	0.0	1013.0	0	0.000	0.0
20100328 22:45	6.9	4.8	6.9	85	4.6	11	21	225	0.0	1013.0	0	0.000	0.0
20100328 22:50	6.9	5.1	6.9	85	4.6	10	19	225	0.0	1013.0	0	0.000	0.0
20100328 22:55	6.9	5.4	6.9	85	4.6	8	19	202	0.0	1013.0	0	0.000	0.0
20100328 23:00	6.9	5.4	6.9	85	4.6	8	13	225	0.0	1013.0	0	0.025	0.0
20100328 23:05	6.9	5.0	6.9	85	4.5	10	18	225	0.0	1012.7	0	0.000	0.0
20100328 23:10	6.9	5.4	6.9	86	4.7	8	16	225	0.0	1012.9	0	0.000	0.0
20100328 23:15	6.8	5.7	6.8	86	4.7	6	14	225	0.2	1012.9	0	0.000	0.0
20100328 23:20	6.8	5.3	6.8	85	4.5	8	18	225	0.0	1012.9	0	0.000	0.0
20100328 23:25	6.8	5.7	6.8	86	4.7	6	11	225	0.0	1012.8	0	0.000	0.0
20100328 23:30	6.8	5.7	6.8	86	4.7	6	13	225	0.0	1012.7	0	0.000	0.0
20100328 23:35	6.8	5.7	6.8	86	4.7	6	14	202	0.0	1012.7	0	0.000	0.0
20100328 23:40	6.8	5.7	6.8	86	4.7	6	14	225	0.0	1012.7	0	0.000	0.0
20100328 23:45	6.8	5.7	6.8	86	4.7	6	11	225	0.0	1012.6	0	0.000	0.0
20100328 23:50	6.8	5.7	6.8	86	4.7	6	11	225	0.0	1012.7	0	0.000	0.0
20100328 23:55	6.8	5.3	6.8	86	4.7	8	13	225	0.0	1012.6	0	0.000	0.0



Please note the license to use and transfer of this data:
http://creativecommons.org/licenses/by-nc-sa/3.0/deed.en

Bitte beachten sie die Lizenz zur Verwertung und Weitergabe der Daten:
http://creativecommons.org/licenses/by-nc-sa/3.0/deed.de

zurück zur Übersicht der Archivdaten (Monats und Tagesdaten)

Cookies helfen bei der Bereitstellung von Inhalten. Durch die Nutzung dieser Seiten erklärst du dich damit einverstanden, dass Cookies auf deinem Rechner gespeichert werden. Weitere Information